Carbonado, Washington
Current Conditions -  °F | °C
As of 6:48 AM on Friday 28 Nov 2014 (Local Time) from KTCM Reporting Station
Overcast Overcast  
Wind Chill: 55°   Ceiling: 2500
Heat Index: 55°   Visibility: 10mi
Dew Point: 50°   Wind: 13mph
Humidity: 82%   Direction: 190°S
Pressure: 29.55"   Gusts: NA
Location:  47.08°N, 122.05°W
Report Text: KTCM 281448Z AUTO 19011KT 10SM BKN025 BKN031 OVC085 13/10 A2955 RMK AO2 CIG 025V080 BKN025 V SCT $
Loading
Personal Weather Stations






























Interactive Weather Map New forecast layout! Learn more

10-Day Weather Forecast

Advertisements
Track Severe Weather on mobile